Terminal Aerodrome Forecast
Issued by NWS Albany, NY

Home | Current Version | Previous Version | Text Only | Print | Product List | Glossary On
Versions: 1 2 3 4 5 6 7 8 9 10 11 12 13 14 15 16 17 18 19 20
000
FTUS41 KALY 061129
TAFALB
TAF
KALB 061129Z 0612/0712 00000KT P6SM BKN250
     FM061400 VRB03KT P6SM FEW030 SCT100 BKN250
     FM061800 17007KT P6SM SCT040 SCT100 BKN200
     FM070000 17005KT P6SM SCT035 BKN050
     FM070500 VRB02KT 6SM BR SCT020 BKN050 BKN080=

USA.gov is the U.S. government's official web portal to all federal, state and local government web resources and services.